sensor_id;sensor_type;location;lat;lon;timestamp;temperature;humidity
42099;DHT22;27758;55.900;8.516;2023-06-14T00:00:51;13.20;99.90
42099;DHT22;27758;55.900;8.516;2023-06-14T00:03:18;13.00;99.90
42099;DHT22;27758;55.900;8.516;2023-06-14T00:05:47;13.00;99.90
42099;DHT22;27758;55.900;8.516;2023-06-14T00:08:14;12.90;99.90
42099;DHT22;27758;55.900;8.516;2023-06-14T00:10:40;12.90;99.90
42099;DHT22;27758;55.900;8.516;2023-06-14T00:13:08;12.90;99.90
42099;DHT22;27758;55.900;8.516;2023-06-14T00:15:34;12.90;99.90
42099;DHT22;27758;55.900;8.516;2023-06-14T00:18:01;12.80;99.90
42099;DHT22;27758;55.900;8.516;2023-06-14T00:20:27;12.60;99.90
42099;DHT22;27758;55.900;8.516;2023-06-14T00:22:54;12.60;99.90
42099;DHT22;27758;55.900;8.516;2023-06-14T00:25:22;12.50;99.90
42099;DHT22;27758;55.900;8.516;2023-06-14T00:27:49;12.40;99.90
42099;DHT22;27758;55.900;8.516;2023-06-14T00:30:14;12.40;99.90
42099;DHT22;27758;55.900;8.516;2023-06-14T00:32:40;12.40;99.90
42099;DHT22;27758;55.900;8.516;2023-06-14T00:35:08;12.30;99.90
42099;DHT22;27758;55.900;8.516;2023-06-14T00:37:35;12.20;99.90
42099;DHT22;27758;55.900;8.516;2023-06-14T00:40:01;12.20;99.90
42099;DHT22;27758;55.900;8.516;2023-06-14T00:42:27;12.20;99.90
42099;DHT22;27758;55.900;8.516;2023-06-14T00:44:54;12.10;99.90
42099;DHT22;27758;55.900;8.516;2023-06-14T00:47:19;12.00;99.90
42099;DHT22;27758;55.900;8.516;2023-06-14T00:49:47;12.00;99.90
42099;DHT22;27758;55.900;8.516;2023-06-14T00:52:14;12.10;99.90
42099;DHT22;27758;55.900;8.516;2023-06-14T00:54:40;12.10;99.90
42099;DHT22;27758;55.900;8.516;2023-06-14T00:57:07;12.10;99.90
42099;DHT22;27758;55.900;8.516;2023-06-14T00:59:35;12.00;99.90
42099;DHT22;27758;55.900;8.516;2023-06-14T01:02:04;12.10;99.90
42099;DHT22;27758;55.900;8.516;2023-06-14T01:04:30;12.00;99.90
42099;DHT22;27758;55.900;8.516;2023-06-14T01:07:12;11.80;99.90
42099;DHT22;27758;55.900;8.516;2023-06-14T01:15:07;11.70;99.90
42099;DHT22;27758;55.900;8.516;2023-06-14T01:17:34;11.70;99.90
42099;DHT22;27758;55.900;8.516;2023-06-14T01:20:03;11.70;99.90
42099;DHT22;27758;55.900;8.516;2023-06-14T01:22:36;11.70;99.90
42099;DHT22;27758;55.900;8.516;2023-06-14T01:25:02;11.60;99.90
42099;DHT22;27758;55.900;8.516;2023-06-14T01:27:28;11.60;99.90
42099;DHT22;27758;55.900;8.516;2023-06-14T01:29:55;11.60;99.90
42099;DHT22;27758;55.900;8.516;2023-06-14T01:32:24;11.60;99.90
42099;DHT22;27758;55.900;8.516;2023-06-14T01:34:54;11.50;99.90
42099;DHT22;27758;55.900;8.516;2023-06-14T01:37:20;11.50;99.90
42099;DHT22;27758;55.900;8.516;2023-06-14T01:39:48;11.40;99.90
42099;DHT22;27758;55.900;8.516;2023-06-14T01:42:15;11.40;99.90
42099;DHT22;27758;55.900;8.516;2023-06-14T01:44:42;11.40;99.90
42099;DHT22;27758;55.900;8.516;2023-06-14T01:47:09;11.20;99.90
42099;DHT22;27758;55.900;8.516;2023-06-14T01:49:36;11.20;99.90
42099;DHT22;27758;55.900;8.516;2023-06-14T01:52:01;11.10;99.90
42099;DHT22;27758;55.900;8.516;2023-06-14T01:54:27;11.10;99.90
42099;DHT22;27758;55.900;8.516;2023-06-14T01:56:54;10.90;99.90
42099;DHT22;27758;55.900;8.516;2023-06-14T01:59:20;10.90;99.90
42099;DHT22;27758;55.900;8.516;2023-06-14T02:01:46;10.80;99.90
42099;DHT22;27758;55.900;8.516;2023-06-14T02:04:11;10.70;99.90
42099;DHT22;27758;55.900;8.516;2023-06-14T02:06:37;10.70;99.90
42099;DHT22;27758;55.900;8.516;2023-06-14T02:09:03;10.80;99.90
42099;DHT22;27758;55.900;8.516;2023-06-14T02:11:29;10.80;99.90
42099;DHT22;27758;55.900;8.516;2023-06-14T02:13:55;10.90;99.90
42099;DHT22;27758;55.900;8.516;2023-06-14T02:16:21;11.00;99.90
42099;DHT22;27758;55.900;8.516;2023-06-14T02:18:48;11.00;99.90
42099;DHT22;27758;55.900;8.516;2023-06-14T02:21:14;11.00;99.90
42099;DHT22;27758;55.900;8.516;2023-06-14T02:23:40;10.90;99.90
42099;DHT22;27758;55.900;8.516;2023-06-14T02:26:06;10.80;99.90
42099;DHT22;27758;55.900;8.516;2023-06-14T02:28:31;10.80;99.90
42099;DHT22;27758;55.900;8.516;2023-06-14T02:30:57;10.80;99.90
42099;DHT22;27758;55.900;8.516;2023-06-14T02:33:23;10.80;99.90
42099;DHT22;27758;55.900;8.516;2023-06-14T02:35:48;10.80;99.90
42099;DHT22;27758;55.900;8.516;2023-06-14T02:38:15;10.80;99.90
42099;DHT22;27758;55.900;8.516;2023-06-14T02:40:41;10.80;99.90
42099;DHT22;27758;55.900;8.516;2023-06-14T02:43:08;10.90;99.90
42099;DHT22;27758;55.900;8.516;2023-06-14T02:45:34;10.90;99.90
42099;DHT22;27758;55.900;8.516;2023-06-14T02:48:00;10.90;99.90
42099;DHT22;27758;55.900;8.516;2023-06-14T02:50:25;10.90;99.90
42099;DHT22;27758;55.900;8.516;2023-06-14T02:52:53;10.90;99.90
42099;DHT22;27758;55.900;8.516;2023-06-14T02:55:21;10.90;99.90
42099;DHT22;27758;55.900;8.516;2023-06-14T02:57:46;10.90;99.90
42099;DHT22;27758;55.900;8.516;2023-06-14T03:00:13;10.90;99.90
42099;DHT22;27758;55.900;8.516;2023-06-14T03:02:40;10.90;99.90
42099;DHT22;27758;55.900;8.516;2023-06-14T03:05:08;10.90;99.90
42099;DHT22;27758;55.900;8.516;2023-06-14T03:07:35;11.00;99.90
42099;DHT22;27758;55.900;8.516;2023-06-14T03:10:01;11.00;99.90
42099;DHT22;27758;55.900;8.516;2023-06-14T03:12:26;10.90;99.90
42099;DHT22;27758;55.900;8.516;2023-06-14T03:14:52;10.90;99.90
42099;DHT22;27758;55.900;8.516;2023-06-14T03:17:18;10.90;99.90
42099;DHT22;27758;55.900;8.516;2023-06-14T03:19:45;10.70;99.90
42099;DHT22;27758;55.900;8.516;2023-06-14T03:22:12;10.60;99.90
42099;DHT22;27758;55.900;8.516;2023-06-14T03:24:38;10.60;99.90
42099;DHT22;27758;55.900;8.516;2023-06-14T03:27:04;10.70;99.90
42099;DHT22;27758;55.900;8.516;2023-06-14T03:29:30;10.70;99.90
42099;DHT22;27758;55.900;8.516;2023-06-14T03:32:00;10.70;99.90
42099;DHT22;27758;55.900;8.516;2023-06-14T03:34:27;10.70;99.90
42099;DHT22;27758;55.900;8.516;2023-06-14T03:36:52;10.70;99.90
42099;DHT22;27758;55.900;8.516;2023-06-14T03:39:18;10.70;99.90
42099;DHT22;27758;55.900;8.516;2023-06-14T03:41:45;10.80;99.90
42099;DHT22;27758;55.900;8.516;2023-06-14T03:44:10;10.80;99.90
42099;DHT22;27758;55.900;8.516;2023-06-14T03:46:36;10.70;99.90
42099;DHT22;27758;55.900;8.516;2023-06-14T03:49:02;10.80;99.90
42099;DHT22;27758;55.900;8.516;2023-06-14T03:51:28;10.70;99.90
42099;DHT22;27758;55.900;8.516;2023-06-14T03:53:54;10.70;99.90
42099;DHT22;27758;55.900;8.516;2023-06-14T03:56:21;10.70;99.90
42099;DHT22;27758;55.900;8.516;2023-06-14T03:58:47;10.80;99.90
42099;DHT22;27758;55.900;8.516;2023-06-14T04:01:13;10.90;99.90
42099;DHT22;27758;55.900;8.516;2023-06-14T04:03:39;11.00;99.90
42099;DHT22;27758;55.900;8.516;2023-06-14T04:06:06;11.00;99.90
42099;DHT22;27758;55.900;8.516;2023-06-14T04:08:32;11.00;99.90
42099;DHT22;27758;55.900;8.516;2023-06-14T04:11:01;11.10;99.90
42099;DHT22;27758;55.900;8.516;2023-06-14T04:13:27;11.30;99.90
42099;DHT22;27758;55.900;8.516;2023-06-14T04:15:52;11.40;99.90
42099;DHT22;27758;55.900;8.516;2023-06-14T04:18:19;11.50;99.90
42099;DHT22;27758;55.900;8.516;2023-06-14T04:20:46;11.70;99.90
42099;DHT22;27758;55.900;8.516;2023-06-14T04:23:13;11.80;99.90
42099;DHT22;27758;55.900;8.516;2023-06-14T04:25:39;12.00;99.90
42099;DHT22;27758;55.900;8.516;2023-06-14T04:28:06;12.10;99.90
42099;DHT22;27758;55.900;8.516;2023-06-14T04:30:34;12.20;99.90
42099;DHT22;27758;55.900;8.516;2023-06-14T04:33:01;12.40;99.90
42099;DHT22;27758;55.900;8.516;2023-06-14T04:35:31;12.50;99.90
42099;DHT22;27758;55.900;8.516;2023-06-14T04:37:58;12.70;99.90
42099;DHT22;27758;55.900;8.516;2023-06-14T04:40:24;12.90;99.90
42099;DHT22;27758;55.900;8.516;2023-06-14T04:42:50;13.00;99.90
42099;DHT22;27758;55.900;8.516;2023-06-14T04:45:16;13.10;99.90
42099;DHT22;27758;55.900;8.516;2023-06-14T04:47:42;13.30;99.90
42099;DHT22;27758;55.900;8.516;2023-06-14T04:50:09;13.50;99.90
42099;DHT22;27758;55.900;8.516;2023-06-14T04:52:36;13.70;99.90
42099;DHT22;27758;55.900;8.516;2023-06-14T04:55:03;13.80;99.90
42099;DHT22;27758;55.900;8.516;2023-06-14T04:57:29;14.00;99.90
42099;DHT22;27758;55.900;8.516;2023-06-14T04:59:57;14.10;99.90
42099;DHT22;27758;55.900;8.516;2023-06-14T05:02:26;14.30;99.90
42099;DHT22;27758;55.900;8.516;2023-06-14T05:04:53;14.50;99.90
42099;DHT22;27758;55.900;8.516;2023-06-14T05:07:19;14.40;99.90
42099;DHT22;27758;55.900;8.516;2023-06-14T05:09:45;14.60;99.90
42099;DHT22;27758;55.900;8.516;2023-06-14T05:12:14;14.80;99.90
42099;DHT22;27758;55.900;8.516;2023-06-14T05:14:43;15.00;99.90
42099;DHT22;27758;55.900;8.516;2023-06-14T05:17:09;15.20;99.90
42099;DHT22;27758;55.900;8.516;2023-06-14T05:19:35;15.50;99.90
42099;DHT22;27758;55.900;8.516;2023-06-14T05:22:01;15.70;99.90
42099;DHT22;27758;55.900;8.516;2023-06-14T05:24:28;15.90;99.90
42099;DHT22;27758;55.900;8.516;2023-06-14T05:26:56;16.10;99.90
42099;DHT22;27758;55.900;8.516;2023-06-14T05:29:22;16.20;99.90
42099;DHT22;27758;55.900;8.516;2023-06-14T05:31:47;16.40;99.90
42099;DHT22;27758;55.900;8.516;2023-06-14T05:34:14;16.70;99.90
42099;DHT22;27758;55.900;8.516;2023-06-14T05:36:40;17.00;99.90
42099;DHT22;27758;55.900;8.516;2023-06-14T05:39:05;17.20;99.90
42099;DHT22;27758;55.900;8.516;2023-06-14T05:41:32;17.40;99.90
42099;DHT22;27758;55.900;8.516;2023-06-14T05:43:58;17.60;99.90
42099;DHT22;27758;55.900;8.516;2023-06-14T05:46:25;17.80;99.90
42099;DHT22;27758;55.900;8.516;2023-06-14T05:48:51;18.00;99.90
42099;DHT22;27758;55.900;8.516;2023-06-14T05:51:17;18.30;99.90
42099;DHT22;27758;55.900;8.516;2023-06-14T05:53:48;18.40;99.90
42099;DHT22;27758;55.900;8.516;2023-06-14T05:56:15;18.50;99.90
42099;DHT22;27758;55.900;8.516;2023-06-14T05:58:41;18.60;99.90
42099;DHT22;27758;55.900;8.516;2023-06-14T06:01:07;18.70;99.90
42099;DHT22;27758;55.900;8.516;2023-06-14T06:03:33;18.50;99.90
42099;DHT22;27758;55.900;8.516;2023-06-14T06:05:59;18.70;99.90
42099;DHT22;27758;55.900;8.516;2023-06-14T06:08:25;18.90;99.90
42099;DHT22;27758;55.900;8.516;2023-06-14T06:10:51;19.40;99.90
42099;DHT22;27758;55.900;8.516;2023-06-14T06:13:17;19.70;99.90
42099;DHT22;27758;55.900;8.516;2023-06-14T06:15:42;19.90;99.90
42099;DHT22;27758;55.900;8.516;2023-06-14T06:18:08;20.00;99.90
42099;DHT22;27758;55.900;8.516;2023-06-14T06:20:34;20.10;99.90
42099;DHT22;27758;55.900;8.516;2023-06-14T06:23:00;20.20;99.90
42099;DHT22;27758;55.900;8.516;2023-06-14T06:25:27;20.30;99.90
42099;DHT22;27758;55.900;8.516;2023-06-14T06:27:53;20.60;99.90
42099;DHT22;27758;55.900;8.516;2023-06-14T06:30:20;20.70;99.90
42099;DHT22;27758;55.900;8.516;2023-06-14T06:32:46;20.90;99.90
42099;DHT22;27758;55.900;8.516;2023-06-14T06:35:13;21.00;99.90
42099;DHT22;27758;55.900;8.516;2023-06-14T06:37:39;21.20;99.90
42099;DHT22;27758;55.900;8.516;2023-06-14T06:40:05;21.30;99.90
42099;DHT22;27758;55.900;8.516;2023-06-14T06:42:34;21.60;99.90
42099;DHT22;27758;55.900;8.516;2023-06-14T06:45:00;21.90;99.90
42099;DHT22;27758;55.900;8.516;2023-06-14T06:47:26;22.00;99.90
42099;DHT22;27758;55.900;8.516;2023-06-14T06:49:52;22.40;99.90
42099;DHT22;27758;55.900;8.516;2023-06-14T06:52:18;22.70;99.90
42099;DHT22;27758;55.900;8.516;2023-06-14T06:54:43;23.10;99.90
42099;DHT22;27758;55.900;8.516;2023-06-14T06:57:09;23.50;99.90
42099;DHT22;27758;55.900;8.516;2023-06-14T06:59:36;23.90;99.90
42099;DHT22;27758;55.900;8.516;2023-06-14T07:02:02;24.10;99.30
42099;DHT22;27758;55.900;8.516;2023-06-14T07:04:28;23.90;98.60
42099;DHT22;27758;55.900;8.516;2023-06-14T07:06:54;24.00;99.30
42099;DHT22;27758;55.900;8.516;2023-06-14T07:09:19;24.20;99.70
42099;DHT22;27758;55.900;8.516;2023-06-14T07:11:47;24.10;97.80
42099;DHT22;27758;55.900;8.516;2023-06-14T07:14:13;24.00;98.40
42099;DHT22;27758;55.900;8.516;2023-06-14T07:16:39;24.00;99.00
42099;DHT22;27758;55.900;8.516;2023-06-14T07:19:05;24.40;98.20
42099;DHT22;27758;55.900;8.516;2023-06-14T07:21:31;24.20;97.70
42099;DHT22;27758;55.900;8.516;2023-06-14T07:23:58;24.30;97.90
42099;DHT22;27758;55.900;8.516;2023-06-14T07:26:24;24.70;97.60
42099;DHT22;27758;55.900;8.516;2023-06-14T07:28:50;25.10;97.30
42099;DHT22;27758;55.900;8.516;2023-06-14T07:31:16;25.40;97.10
42099;DHT22;27758;55.900;8.516;2023-06-14T07:33:42;25.70;96.50
42099;DHT22;27758;55.900;8.516;2023-06-14T07:36:08;25.40;96.00
42099;DHT22;27758;55.900;8.516;2023-06-14T07:38:34;25.20;95.70
42099;DHT22;27758;55.900;8.516;2023-06-14T07:41:00;25.40;96.60
42099;DHT22;27758;55.900;8.516;2023-06-14T07:43:26;25.50;96.30
42099;DHT22;27758;55.900;8.516;2023-06-14T07:45:51;25.60;96.60
42099;DHT22;27758;55.900;8.516;2023-06-14T07:48:18;26.10;97.00
42099;DHT22;27758;55.900;8.516;2023-06-14T07:50:44;26.30;95.90
42099;DHT22;27758;55.900;8.516;2023-06-14T07:53:10;26.60;96.00
42099;DHT22;27758;55.900;8.516;2023-06-14T07:55:36;26.70;95.50
42099;DHT22;27758;55.900;8.516;2023-06-14T07:58:06;27.10;95.20
42099;DHT22;27758;55.900;8.516;2023-06-14T08:00:32;27.40;94.80
42099;DHT22;27758;55.900;8.516;2023-06-14T08:02:58;27.40;93.90
42099;DHT22;27758;55.900;8.516;2023-06-14T08:05:28;27.60;95.00
42099;DHT22;27758;55.900;8.516;2023-06-14T08:07:55;27.70;94.90
42099;DHT22;27758;55.900;8.516;2023-06-14T08:10:21;27.70;93.30
42099;DHT22;27758;55.900;8.516;2023-06-14T08:12:47;27.60;93.70
42099;DHT22;27758;55.900;8.516;2023-06-14T08:15:16;27.90;94.00
42099;DHT22;27758;55.900;8.516;2023-06-14T08:17:45;28.20;93.30
42099;DHT22;27758;55.900;8.516;2023-06-14T08:20:11;27.90;92.60
42099;DHT22;27758;55.900;8.516;2023-06-14T08:22:37;28.00;92.40
42099;DHT22;27758;55.900;8.516;2023-06-14T08:25:03;28.10;92.50
42099;DHT22;27758;55.900;8.516;2023-06-14T08:27:30;28.00;92.60
42099;DHT22;27758;55.900;8.516;2023-06-14T08:29:56;28.30;92.10
42099;DHT22;27758;55.900;8.516;2023-06-14T08:32:22;28.70;91.70
42099;DHT22;27758;55.900;8.516;2023-06-14T08:34:48;28.80;91.80
42099;DHT22;27758;55.900;8.516;2023-06-14T08:37:15;29.20;91.80
42099;DHT22;27758;55.900;8.516;2023-06-14T08:39:41;29.30;91.60
42099;DHT22;27758;55.900;8.516;2023-06-14T08:42:07;29.40;91.00
42099;DHT22;27758;55.900;8.516;2023-06-14T08:44:34;29.50;90.50
42099;DHT22;27758;55.900;8.516;2023-06-14T08:47:00;29.40;89.50
42099;DHT22;27758;55.900;8.516;2023-06-14T08:49:26;29.40;90.40
42099;DHT22;27758;55.900;8.516;2023-06-14T08:51:57;29.50;89.70
42099;DHT22;27758;55.900;8.516;2023-06-14T08:54:25;29.50;88.70
42099;DHT22;27758;55.900;8.516;2023-06-14T08:56:54;28.80;88.40
42099;DHT22;27758;55.900;8.516;2023-06-14T08:59:25;28.50;88.10
42099;DHT22;27758;55.900;8.516;2023-06-14T09:01:52;28.40;89.90
42099;DHT22;27758;55.900;8.516;2023-06-14T09:04:23;28.50;88.60
42099;DHT22;27758;55.900;8.516;2023-06-14T09:06:50;28.10;89.60
42099;DHT22;27758;55.900;8.516;2023-06-14T09:09:20;28.40;90.40
42099;DHT22;27758;55.900;8.516;2023-06-14T09:11:46;28.90;88.40
42099;DHT22;27758;55.900;8.516;2023-06-14T09:14:12;28.90;88.40
42099;DHT22;27758;55.900;8.516;2023-06-14T09:16:38;28.90;87.10
42099;DHT22;27758;55.900;8.516;2023-06-14T09:19:04;28.90;87.20
42099;DHT22;27758;55.900;8.516;2023-06-14T09:21:33;29.20;89.90
42099;DHT22;27758;55.900;8.516;2023-06-14T09:23:59;29.50;88.20
42099;DHT22;27758;55.900;8.516;2023-06-14T09:26:25;30.00;86.50
42099;DHT22;27758;55.900;8.516;2023-06-14T09:28:53;30.20;85.50
42099;DHT22;27758;55.900;8.516;2023-06-14T09:31:21;30.10;85.70
42099;DHT22;27758;55.900;8.516;2023-06-14T09:33:50;29.80;82.70
42099;DHT22;27758;55.900;8.516;2023-06-14T09:36:17;29.40;86.00
42099;DHT22;27758;55.900;8.516;2023-06-14T09:38:52;29.30;83.80
42099;DHT22;27758;55.900;8.516;2023-06-14T09:41:18;29.40;84.10
42099;DHT22;27758;55.900;8.516;2023-06-14T09:43:43;29.50;86.30
42099;DHT22;27758;55.900;8.516;2023-06-14T09:46:11;29.50;83.30
42099;DHT22;27758;55.900;8.516;2023-06-14T09:48:37;29.80;83.10
42099;DHT22;27758;55.900;8.516;2023-06-14T09:51:03;29.30;83.70
42099;DHT22;27758;55.900;8.516;2023-06-14T09:53:33;29.20;84.70
42099;DHT22;27758;55.900;8.516;2023-06-14T09:56:01;29.20;85.10
42099;DHT22;27758;55.900;8.516;2023-06-14T09:58:28;29.20;84.00
42099;DHT22;27758;55.900;8.516;2023-06-14T10:00:55;29.40;86.20
42099;DHT22;27758;55.900;8.516;2023-06-14T10:03:25;29.80;86.20
42099;DHT22;27758;55.900;8.516;2023-06-14T10:05:52;30.30;86.30
42099;DHT22;27758;55.900;8.516;2023-06-14T10:08:22;30.50;84.60
42099;DHT22;27758;55.900;8.516;2023-06-14T10:10:49;30.30;84.10
42099;DHT22;27758;55.900;8.516;2023-06-14T10:13:15;30.00;82.80
42099;DHT22;27758;55.900;8.516;2023-06-14T10:15:48;30.20;84.30
42099;DHT22;27758;55.900;8.516;2023-06-14T10:21:18;30.70;82.60
42099;DHT22;27758;55.900;8.516;2023-06-14T10:23:47;30.70;84.30
42099;DHT22;27758;55.900;8.516;2023-06-14T10:26:23;31.10;84.30
42099;DHT22;27758;55.900;8.516;2023-06-14T10:28:57;31.70;84.10
42099;DHT22;27758;55.900;8.516;2023-06-14T10:31:46;31.70;82.30
42099;DHT22;27758;55.900;8.516;2023-06-14T10:34:27;31.40;79.60
42099;DHT22;27758;55.900;8.516;2023-06-14T10:37:04;31.20;81.80
42099;DHT22;27758;55.900;8.516;2023-06-14T10:39:32;31.10;78.90
42099;DHT22;27758;55.900;8.516;2023-06-14T10:42:02;31.30;80.50
42099;DHT22;27758;55.900;8.516;2023-06-14T10:46:58;31.80;82.00
42099;DHT22;27758;55.900;8.516;2023-06-14T10:52:09;32.00;81.30
42099;DHT22;27758;55.900;8.516;2023-06-14T10:54:37;32.10;81.90
42099;DHT22;27758;55.900;8.516;2023-06-14T10:57:06;32.10;79.90
42099;DHT22;27758;55.900;8.516;2023-06-14T10:59:33;32.40;83.40
42099;DHT22;27758;55.900;8.516;2023-06-14T11:04:49;31.40;79.80
42099;DHT22;27758;55.900;8.516;2023-06-14T11:12:41;31.40;78.90
42099;DHT22;27758;55.900;8.516;2023-06-14T11:15:10;31.20;81.50
42099;DHT22;27758;55.900;8.516;2023-06-14T11:17:36;31.50;79.70
42099;DHT22;27758;55.900;8.516;2023-06-14T11:20:12;31.60;78.90
42099;DHT22;27758;55.900;8.516;2023-06-14T11:22:44;31.30;79.90
42099;DHT22;27758;55.900;8.516;2023-06-14T11:25:10;31.60;79.20
42099;DHT22;27758;55.900;8.516;2023-06-14T11:27:36;31.80;78.00
42099;DHT22;27758;55.900;8.516;2023-06-14T11:30:02;32.00;77.10
42099;DHT22;27758;55.900;8.516;2023-06-14T11:32:30;31.50;78.40
42099;DHT22;27758;55.900;8.516;2023-06-14T11:34:56;31.20;82.10
42099;DHT22;27758;55.900;8.516;2023-06-14T11:37:24;31.20;78.10
42099;DHT22;27758;55.900;8.516;2023-06-14T11:39:51;31.40;80.50
42099;DHT22;27758;55.900;8.516;2023-06-14T11:42:17;31.60;79.30
42099;DHT22;27758;55.900;8.516;2023-06-14T11:44:46;31.60;77.90
42099;DHT22;27758;55.900;8.516;2023-06-14T11:47:12;31.60;78.50
42099;DHT22;27758;55.900;8.516;2023-06-14T11:49:38;31.90;76.90
42099;DHT22;27758;55.900;8.516;2023-06-14T11:52:04;31.70;77.30
42099;DHT22;27758;55.900;8.516;2023-06-14T11:54:32;31.80;78.10
42099;DHT22;27758;55.900;8.516;2023-06-14T11:56:58;32.20;76.90
42099;DHT22;27758;55.900;8.516;2023-06-14T11:59:24;31.70;76.80
42099;DHT22;27758;55.900;8.516;2023-06-14T12:01:52;31.60;76.00
42099;DHT22;27758;55.900;8.516;2023-06-14T12:04:29;31.80;76.80
42099;DHT22;27758;55.900;8.516;2023-06-14T12:06:55;31.50;76.20
42099;DHT22;27758;55.900;8.516;2023-06-14T12:09:23;31.60;77.20
42099;DHT22;27758;55.900;8.516;2023-06-14T12:11:49;31.60;75.80
42099;DHT22;27758;55.900;8.516;2023-06-14T12:14:15;31.90;74.20
42099;DHT22;27758;55.900;8.516;2023-06-14T12:16:42;31.90;75.10
42099;DHT22;27758;55.900;8.516;2023-06-14T12:19:15;32.00;75.20
42099;DHT22;27758;55.900;8.516;2023-06-14T12:21:42;32.00;74.40
42099;DHT22;27758;55.900;8.516;2023-06-14T12:24:08;31.80;74.30
42099;DHT22;27758;55.900;8.516;2023-06-14T12:26:41;31.50;73.10
42099;DHT22;27758;55.900;8.516;2023-06-14T12:29:07;31.30;74.50
42099;DHT22;27758;55.900;8.516;2023-06-14T12:31:33;31.10;73.20
42099;DHT22;27758;55.900;8.516;2023-06-14T12:33:59;31.00;75.50
42099;DHT22;27758;55.900;8.516;2023-06-14T12:36:24;31.00;74.80
42099;DHT22;27758;55.900;8.516;2023-06-14T12:38:51;30.80;75.30
42099;DHT22;27758;55.900;8.516;2023-06-14T12:41:22;31.10;75.00
42099;DHT22;27758;55.900;8.516;2023-06-14T12:43:48;31.10;74.90
42099;DHT22;27758;55.900;8.516;2023-06-14T12:46:14;31.30;73.20
42099;DHT22;27758;55.900;8.516;2023-06-14T12:48:39;31.20;73.50
42099;DHT22;27758;55.900;8.516;2023-06-14T12:51:05;31.40;74.40
42099;DHT22;27758;55.900;8.516;2023-06-14T12:53:31;31.30;73.90
42099;DHT22;27758;55.900;8.516;2023-06-14T12:55:56;30.80;73.30
42099;DHT22;27758;55.900;8.516;2023-06-14T12:58:22;30.40;74.00
42099;DHT22;27758;55.900;8.516;2023-06-14T13:00:49;29.80;73.30
42099;DHT22;27758;55.900;8.516;2023-06-14T13:03:15;29.40;74.30
42099;DHT22;27758;55.900;8.516;2023-06-14T13:05:41;29.40;74.10
42099;DHT22;27758;55.900;8.516;2023-06-14T13:08:08;29.30;76.20
42099;DHT22;27758;55.900;8.516;2023-06-14T13:10:34;29.00;77.40
42099;DHT22;27758;55.900;8.516;2023-06-14T13:13:00;29.20;76.70
42099;DHT22;27758;55.900;8.516;2023-06-14T13:15:26;29.40;75.50
42099;DHT22;27758;55.900;8.516;2023-06-14T13:17:52;29.30;77.20
42099;DHT22;27758;55.900;8.516;2023-06-14T13:20:18;29.10;76.30
42099;DHT22;27758;55.900;8.516;2023-06-14T13:22:44;29.30;78.10
42099;DHT22;27758;55.900;8.516;2023-06-14T13:25:10;29.50;82.10
42099;DHT22;27758;55.900;8.516;2023-06-14T13:27:35;29.50;82.10
42099;DHT22;27758;55.900;8.516;2023-06-14T13:30:02;29.50;83.60
42099;DHT22;27758;55.900;8.516;2023-06-14T13:32:28;29.60;82.70
42099;DHT22;27758;55.900;8.516;2023-06-14T13:34:54;29.70;81.30
42099;DHT22;27758;55.900;8.516;2023-06-14T13:37:20;29.50;81.80
42099;DHT22;27758;55.900;8.516;2023-06-14T13:39:46;29.10;82.80
42099;DHT22;27758;55.900;8.516;2023-06-14T13:42:11;28.70;84.80
42099;DHT22;27758;55.900;8.516;2023-06-14T13:44:37;28.30;84.00
42099;DHT22;27758;55.900;8.516;2023-06-14T13:47:03;28.30;84.70
42099;DHT22;27758;55.900;8.516;2023-06-14T13:49:29;28.40;83.60
42099;DHT22;27758;55.900;8.516;2023-06-14T13:51:55;28.50;84.00
42099;DHT22;27758;55.900;8.516;2023-06-14T13:54:20;28.50;85.30
42099;DHT22;27758;55.900;8.516;2023-06-14T13:56:46;28.60;83.80
42099;DHT22;27758;55.900;8.516;2023-06-14T13:59:12;28.40;83.50
42099;DHT22;27758;55.900;8.516;2023-06-14T14:01:39;28.10;84.70
42099;DHT22;27758;55.900;8.516;2023-06-14T14:04:05;27.70;83.10
42099;DHT22;27758;55.900;8.516;2023-06-14T14:06:31;27.30;83.40
42099;DHT22;27758;55.900;8.516;2023-06-14T14:08:57;26.90;83.60
42099;DHT22;27758;55.900;8.516;2023-06-14T14:11:23;26.70;84.40
42099;DHT22;27758;55.900;8.516;2023-06-14T14:13:49;26.70;85.20
42099;DHT22;27758;55.900;8.516;2023-06-14T14:16:15;26.80;85.20
42099;DHT22;27758;55.900;8.516;2023-06-14T14:18:41;27.00;86.10
42099;DHT22;27758;55.900;8.516;2023-06-14T14:21:07;27.10;85.30
42099;DHT22;27758;55.900;8.516;2023-06-14T14:23:32;27.10;86.50
42099;DHT22;27758;55.900;8.516;2023-06-14T14:25:58;27.10;86.10
42099;DHT22;27758;55.900;8.516;2023-06-14T14:28:28;27.10;86.10
42099;DHT22;27758;55.900;8.516;2023-06-14T14:30:54;27.10;85.80
42099;DHT22;27758;55.900;8.516;2023-06-14T14:33:20;27.10;86.40
42099;DHT22;27758;55.900;8.516;2023-06-14T14:35:46;27.00;86.90
42099;DHT22;27758;55.900;8.516;2023-06-14T14:38:12;26.90;87.30
42099;DHT22;27758;55.900;8.516;2023-06-14T14:40:39;26.90;87.50
42099;DHT22;27758;55.900;8.516;2023-06-14T14:43:06;26.70;89.00
42099;DHT22;27758;55.900;8.516;2023-06-14T14:45:31;26.60;90.00
42099;DHT22;27758;55.900;8.516;2023-06-14T14:47:58;26.50;90.10
42099;DHT22;27758;55.900;8.516;2023-06-14T14:50:25;26.40;90.60
42099;DHT22;27758;55.900;8.516;2023-06-14T14:52:50;26.50;91.10
42099;DHT22;27758;55.900;8.516;2023-06-14T14:55:16;26.50;90.70
42099;DHT22;27758;55.900;8.516;2023-06-14T14:57:42;26.40;91.00
42099;DHT22;27758;55.900;8.516;2023-06-14T15:00:08;26.40;91.50
42099;DHT22;27758;55.900;8.516;2023-06-14T15:02:35;26.40;92.10
42099;DHT22;27758;55.900;8.516;2023-06-14T15:05:00;26.30;91.90
42099;DHT22;27758;55.900;8.516;2023-06-14T15:07:28;26.20;91.80
42099;DHT22;27758;55.900;8.516;2023-06-14T15:09:54;26.10;92.30
42099;DHT22;27758;55.900;8.516;2023-06-14T15:12:21;26.20;92.20
42099;DHT22;27758;55.900;8.516;2023-06-14T15:14:50;26.40;92.70
42099;DHT22;27758;55.900;8.516;2023-06-14T15:17:17;26.70;92.50
42099;DHT22;27758;55.900;8.516;2023-06-14T15:19:44;26.80;92.90
42099;DHT22;27758;55.900;8.516;2023-06-14T15:22:10;26.90;92.90
42099;DHT22;27758;55.900;8.516;2023-06-14T15:24:36;26.80;93.10
42099;DHT22;27758;55.900;8.516;2023-06-14T15:27:01;26.80;93.00
42099;DHT22;27758;55.900;8.516;2023-06-14T15:29:28;26.70;92.40
42099;DHT22;27758;55.900;8.516;2023-06-14T15:31:54;26.70;92.80
42099;DHT22;27758;55.900;8.516;2023-06-14T15:34:21;26.80;93.30
42099;DHT22;27758;55.900;8.516;2023-06-14T15:36:46;26.70;93.10
42099;DHT22;27758;55.900;8.516;2023-06-14T15:39:12;26.80;93.00
42099;DHT22;27758;55.900;8.516;2023-06-14T15:41:38;26.80;92.90
42099;DHT22;27758;55.900;8.516;2023-06-14T15:44:04;27.00;92.40
42099;DHT22;27758;55.900;8.516;2023-06-14T15:46:29;27.20;91.80
42099;DHT22;27758;55.900;8.516;2023-06-14T15:48:55;27.20;91.90